RKPK/PUS METAR and TAF weather

Enter ICAO airport designator
Station Type Date Time Source
RKPK METAR 2022/01/27 23:00 UTC NOAA

RKPK 272300Z 33006KT CAVOK 02/M15 Q1024


Station Type Date Time Source
RKPK Decoded METAR 2022/01/27 23:00 UTC NOAA

Pusan / Kimhae International Airport, Korea, South (RKPK) 35-11N 128-56E 6M
Jan 27, 2022 - 06:00 PM EST / 2022.01.27 2300 UTC
Wind: from the NNW (330 degrees) at 7 MPH (6 KT):0
Visibility: greater than 7 mile(s):0
Temperature: 35 F (2 C)
Windchill: 28 F (-2 C):1
Dew Point: 5 F (-15 C)
Relative Humidity: 27%
Pressure (altimeter): 30.24 in. Hg (1024 hPa)
ob: RKPK 272300Z 33006KT CAVOK 02/M15 Q1024
cycle: 23

Station Type Date Time Source
RKPK TAF 2022/01/27 18:10 UTC NOAA

TAF RKPK 271700Z 2718/2824 33006KT 9999 TX09/2806Z TNM01/2821Z

Example: see airport list